createdAt,value
2023-04-08T00:00:24.353Z,8.20
2023-04-08T00:02:52.258Z,8.70
2023-04-08T00:05:20.356Z,8.50
2023-04-08T00:07:49.697Z,8.95
2023-04-08T00:10:17.864Z,8.95
2023-04-08T00:12:45.826Z,9.65
2023-04-08T00:15:13.790Z,8.98
2023-04-08T00:17:43.200Z,9.40
2023-04-08T00:20:11.635Z,9.88
2023-04-08T00:22:39.582Z,10.40
2023-04-08T00:25:09.917Z,10.40
2023-04-08T00:27:37.929Z,10.77
2023-04-08T00:30:07.130Z,10.52
2023-04-08T00:32:35.074Z,11.20
2023-04-08T00:35:03.627Z,10.73
2023-04-08T00:37:31.874Z,10.02
2023-04-08T00:39:59.806Z,10.63
2023-04-08T00:42:30.823Z,11.13
2023-04-08T00:44:58.813Z,11.50
2023-04-08T00:47:26.805Z,11.88
2023-04-08T00:49:54.726Z,12.50
2023-04-08T00:52:22.591Z,13.48
2023-04-08T00:54:50.596Z,13.10
2023-04-08T00:57:18.516Z,13.70
2023-04-08T00:59:47.842Z,13.75
2023-04-08T01:02:18.707Z,13.82
2023-04-08T01:04:52.333Z,13.05
2023-04-08T01:07:23.806Z,14.00
2023-04-08T01:09:55.776Z,13.75
2023-04-08T01:12:28.273Z,13.93
2023-04-08T01:15:01.566Z,13.20
2023-04-08T01:17:30.644Z,15.07
2023-04-08T01:19:59.557Z,15.68
2023-04-08T01:22:33.322Z,14.75
2023-04-08T01:25:05.744Z,15.02
2023-04-08T01:27:35.435Z,14.90
2023-04-08T01:30:04.919Z,14.93
2023-04-08T01:32:33.748Z,13.93
2023-04-08T01:35:02.468Z,14.70
2023-04-08T01:37:30.814Z,14.55
2023-04-08T01:39:59.876Z,14.45
2023-04-08T01:42:30.004Z,13.70
2023-04-08T01:45:00.042Z,14.70
2023-04-08T01:47:29.402Z,13.30
2023-04-08T01:49:57.570Z,14.80
2023-04-08T01:52:26.924Z,15.68
2023-04-08T01:54:54.802Z,14.15
2023-04-08T01:57:26.138Z,14.45
2023-04-08T01:59:54.485Z,14.50
2023-04-08T02:02:26.006Z,13.40
2023-04-08T02:04:54.708Z,15.05
2023-04-08T02:07:22.900Z,13.70
2023-04-08T02:09:51.442Z,14.40
2023-04-08T02:12:19.335Z,13.77
2023-04-08T02:14:47.397Z,14.13
2023-04-08T02:17:22.613Z,14.05
2023-04-08T02:19:57.382Z,13.98
2023-04-08T02:22:31.705Z,13.65
2023-04-08T02:25:00.250Z,12.90
2023-04-08T02:27:29.281Z,12.65
2023-04-08T02:29:58.480Z,12.90
2023-04-08T02:32:27.495Z,13.23
2023-04-08T02:34:58.100Z,13.60
2023-04-08T02:37:26.002Z,13.68
2023-04-08T02:39:53.866Z,12.57
2023-04-08T02:42:21.885Z,13.25
2023-04-08T02:44:49.907Z,14.05
2023-04-08T02:47:17.905Z,13.52
2023-04-08T02:49:45.949Z,13.25
2023-04-08T02:52:15.501Z,13.57
2023-04-08T02:54:43.440Z,13.25
2023-04-08T02:57:11.307Z,14.48
2023-04-08T02:59:40.867Z,13.65
2023-04-08T03:02:08.785Z,12.95
2023-04-08T03:04:36.872Z,13.68
2023-04-08T03:07:06.172Z,13.10
2023-04-08T03:09:37.605Z,13.27
2023-04-08T03:12:05.898Z,12.38
2023-04-08T03:14:33.846Z,13.38
2023-04-08T03:17:01.848Z,13.55
2023-04-08T03:19:29.728Z,13.65
2023-04-08T03:21:57.634Z,13.30
2023-04-08T03:24:25.506Z,14.63
2023-04-08T03:26:54.736Z,13.95
2023-04-08T03:29:22.680Z,13.88
2023-04-08T03:31:50.878Z,13.90
2023-04-08T03:34:18.805Z,13.98
2023-04-08T03:36:46.750Z,13.35
2023-04-08T03:39:14.860Z,14.30
2023-04-08T03:41:42.716Z,14.05
2023-04-08T03:44:12.025Z,14.63
2023-04-08T03:46:40.291Z,14.88
2023-04-08T03:49:08.396Z,14.15
2023-04-08T03:51:36.296Z,14.40
2023-04-08T03:54:04.374Z,14.43
2023-04-08T03:56:32.210Z,15.00
2023-04-08T03:59:00.030Z,14.00
2023-04-08T04:01:30.180Z,16.05
2023-04-08T04:03:58.189Z,15.85
2023-04-08T04:06:26.683Z,15.18
2023-04-08T04:08:54.936Z,15.18
2023-04-08T04:11:23.076Z,15.77
2023-04-08T04:13:51.024Z,15.80
2023-04-08T04:16:18.900Z,16.02
2023-04-08T04:18:48.268Z,15.73
2023-04-08T04:21:16.245Z,16.15
2023-04-08T04:23:44.145Z,15.65
2023-04-08T04:26:12.510Z,15.20
2023-04-08T04:28:40.490Z,15.55
2023-04-08T04:31:08.431Z,14.77
2023-04-08T04:33:36.350Z,14.23
2023-04-08T04:36:05.631Z,15.77
2023-04-08T04:38:33.491Z,15.00
2023-04-08T04:41:01.698Z,13.98
2023-04-08T04:43:29.639Z,15.10
2023-04-08T04:45:57.964Z,14.57
2023-04-08T04:48:25.960Z,14.15
2023-04-08T04:50:57.186Z,13.85
2023-04-08T04:53:26.835Z,14.75
2023-04-08T04:55:55.268Z,13.75
2023-04-08T04:58:23.329Z,13.95
2023-04-08T05:00:51.254Z,13.15
2023-04-08T05:03:19.394Z,13.90
2023-04-08T05:05:52.297Z,13.85
2023-04-08T05:08:20.292Z,13.60
2023-04-08T05:10:50.267Z,14.23
2023-04-08T05:13:18.705Z,13.82
2023-04-08T05:15:46.834Z,14.10
2023-04-08T05:18:14.982Z,14.40
2023-04-08T05:20:42.902Z,14.82
2023-04-08T05:23:10.982Z,13.98
2023-04-08T05:25:38.930Z,13.43
2023-04-08T05:28:08.248Z,14.35
2023-04-08T05:30:36.138Z,14.68
2023-04-08T05:33:04.136Z,13.65
2023-04-08T05:35:32.187Z,14.10
2023-04-08T05:38:00.128Z,14.68
2023-04-08T05:40:28.099Z,14.60
2023-04-08T05:42:55.988Z,16.15
2023-04-08T05:45:25.314Z,14.98
2023-04-08T05:47:53.272Z,16.00
2023-04-08T05:50:21.242Z,14.82
2023-04-08T05:52:49.208Z,14.35
2023-04-08T05:55:17.140Z,14.77
2023-04-08T05:57:45.091Z,14.93
2023-04-08T06:00:13.321Z,14.30
2023-04-08T06:02:42.969Z,14.60
2023-04-08T06:05:11.252Z,14.25
2023-04-08T06:07:39.170Z,15.07
2023-04-08T06:10:07.703Z,14.95
2023-04-08T06:12:37.009Z,15.00
2023-04-08T06:15:05.381Z,14.73
2023-04-08T06:17:33.349Z,14.43
2023-04-08T06:20:04.083Z,14.98
2023-04-08T06:22:32.105Z,14.52
2023-04-08T06:24:59.995Z,14.35
2023-04-08T06:27:27.849Z,14.48
2023-04-08T06:29:56.359Z,15.32
2023-04-08T06:32:24.289Z,15.27
2023-04-08T06:34:52.143Z,15.60
2023-04-08T06:37:21.620Z,15.85
2023-04-08T06:39:49.511Z,14.82
2023-04-08T06:42:17.386Z,15.77
2023-04-08T06:44:45.233Z,15.57
2023-04-08T06:47:13.087Z,16.48
2023-04-08T06:49:41.460Z,16.42
2023-04-08T06:52:09.341Z,14.80
2023-04-08T06:54:38.584Z,15.77
2023-04-08T06:57:06.658Z,15.82
2023-04-08T06:59:34.506Z,16.35
2023-04-08T07:02:02.453Z,16.15
2023-04-08T07:04:30.367Z,15.75
2023-04-08T07:06:58.266Z,15.25
2023-04-08T07:09:26.198Z,15.05
2023-04-08T07:11:55.817Z,15.43
2023-04-08T07:14:23.680Z,14.30
2023-04-08T07:16:51.681Z,12.90
2023-04-08T07:19:19.665Z,13.38
2023-04-08T07:21:47.611Z,14.07
2023-04-08T07:24:15.962Z,12.93
2023-04-08T07:26:43.889Z,12.77
2023-04-08T07:29:13.115Z,12.27
2023-04-08T07:31:41.127Z,12.10
2023-04-08T07:34:08.996Z,10.80
2023-04-08T07:36:37.177Z,11.45
2023-04-08T07:39:05.095Z,11.60
2023-04-08T07:41:33.068Z,11.48
2023-04-08T07:44:00.985Z,11.05
2023-04-08T07:46:31.682Z,10.60
2023-04-08T07:48:59.581Z,11.32
2023-04-08T07:51:28.101Z,11.50
2023-04-08T07:53:55.980Z,10.75
2023-04-08T07:56:23.919Z,11.80
2023-04-08T07:58:53.754Z,9.30
2023-04-08T08:01:23.003Z,8.93
2023-04-08T08:03:53.398Z,8.50
2023-04-08T08:06:22.147Z,9.48
2023-04-08T08:08:50.144Z,9.07
2023-04-08T08:11:18.077Z,8.23
2023-04-08T08:13:46.066Z,8.30
2023-04-08T08:16:14.065Z,8.60
2023-04-08T08:18:42.444Z,8.20
2023-04-08T08:21:11.730Z,8.85
2023-04-08T08:23:39.665Z,9.30
2023-04-08T08:26:10.749Z,8.70
2023-04-08T08:28:38.757Z,8.15
2023-04-08T08:31:07.101Z,8.00
2023-04-08T08:33:35.099Z,8.50
2023-04-08T08:36:04.704Z,8.73
2023-04-08T08:38:34.256Z,9.00
2023-04-08T08:41:04.236Z,10.35
2023-04-08T08:43:33.580Z,9.82
2023-04-08T08:46:01.635Z,10.88
2023-04-08T08:48:29.587Z,10.80
2023-04-08T08:50:57.927Z,10.30
2023-04-08T08:53:32.756Z,10.45
2023-04-08T08:58:34.784Z,10.45
2023-04-08T09:01:02.723Z,9.82
2023-04-08T09:03:30.889Z,11.20
2023-04-08T09:06:00.449Z,10.52
2023-04-08T09:08:30.436Z,9.45
2023-04-08T09:11:13.749Z,10.30
2023-04-08T09:13:41.957Z,10.65
2023-04-08T09:16:10.976Z,10.20
2023-04-08T09:18:39.569Z,10.73
2023-04-08T09:21:08.185Z,11.60
2023-04-08T09:23:42.742Z,10.77
2023-04-08T09:26:11.856Z,11.35
2023-04-08T09:28:41.931Z,11.27
2023-04-08T09:31:28.292Z,11.45
2023-04-08T09:33:57.641Z,11.43
2023-04-08T09:36:27.743Z,10.88
2023-04-08T09:38:56.263Z,10.52
2023-04-08T09:41:24.642Z,10.10
2023-04-08T09:43:55.977Z,10.90
2023-04-08T09:46:27.821Z,11.20
2023-04-08T09:49:03.811Z,10.13
2023-04-08T09:51:35.064Z,10.85
2023-04-08T09:54:05.096Z,10.95
2023-04-08T09:56:45.560Z,10.57
2023-04-08T09:59:17.404Z,11.23
2023-04-08T10:01:48.444Z,10.43
2023-04-08T10:04:18.562Z,10.77
2023-04-08T10:06:47.484Z,11.73
2023-04-08T10:09:15.358Z,10.93
2023-04-08T10:11:43.251Z,11.20
2023-04-08T10:14:11.451Z,10.52
2023-04-08T10:16:41.101Z,10.23
2023-04-08T10:19:39.479Z,10.32
2023-04-08T10:22:47.278Z,11.27
2023-04-08T10:25:32.428Z,10.85
2023-04-08T10:28:00.644Z,11.20
2023-04-08T10:30:44.159Z,12.18
2023-04-08T10:33:15.137Z,11.93
2023-04-08T10:35:46.336Z,12.23
2023-04-08T10:38:15.056Z,11.00
2023-04-08T10:40:44.448Z,11.52
2023-04-08T10:43:13.403Z,11.82
2023-04-08T10:45:41.967Z,12.07
2023-04-08T10:48:15.471Z,10.95
2023-04-08T10:50:43.388Z,11.10
2023-04-08T10:53:12.659Z,10.88
2023-04-08T10:55:40.563Z,11.05
2023-04-08T10:58:09.473Z,10.93
2023-04-08T11:00:38.472Z,10.52
2023-04-08T11:03:08.252Z,11.30
2023-04-08T11:05:38.654Z,9.63
2023-04-08T11:08:07.124Z,11.15
2023-04-08T11:10:38.485Z,11.77
2023-04-08T11:13:08.871Z,11.30
2023-04-08T11:15:37.367Z,12.43
2023-04-08T11:18:06.782Z,11.40
2023-04-08T11:20:36.265Z,11.52
2023-04-08T11:23:05.545Z,11.35
2023-04-08T11:25:33.469Z,11.25
2023-04-08T11:28:01.462Z,11.38
2023-04-08T11:30:30.032Z,13.05
2023-04-08T11:32:58.571Z,11.38
2023-04-08T11:35:29.988Z,11.95
2023-04-08T11:37:58.291Z,11.52
2023-04-08T11:40:28.365Z,10.90
2023-04-08T11:42:56.270Z,10.55
2023-04-08T11:45:24.168Z,12.15
2023-04-08T11:47:52.146Z,11.23
2023-04-08T11:50:24.935Z,11.30
2023-04-08T11:52:53.784Z,11.02
2023-04-08T11:55:26.490Z,10.85
2023-04-08T11:57:57.333Z,12.95
2023-04-08T12:00:26.114Z,12.23
2023-04-08T12:02:54.085Z,11.25
2023-04-08T12:05:22.199Z,10.68
2023-04-08T12:07:50.225Z,10.27
2023-04-08T12:10:18.171Z,11.02
2023-04-08T12:12:46.176Z,10.63
2023-04-08T12:15:15.855Z,11.65
2023-04-08T12:17:44.413Z,12.05
2023-04-08T12:20:12.874Z,10.90
2023-04-08T12:22:40.898Z,11.63
2023-04-08T12:25:09.341Z,10.75
2023-04-08T12:27:37.328Z,11.02
2023-04-08T12:30:05.905Z,11.25
2023-04-08T12:32:35.329Z,10.65
2023-04-08T12:35:03.333Z,10.40
2023-04-08T12:37:33.203Z,10.10
2023-04-08T12:40:01.339Z,10.10
2023-04-08T12:42:29.294Z,10.98
2023-04-08T12:44:57.824Z,9.70
2023-04-08T12:47:26.445Z,9.38
2023-04-08T12:49:55.767Z,9.73
2023-04-08T12:52:24.222Z,9.25
2023-04-08T12:54:52.189Z,9.55
2023-04-08T12:57:20.530Z,9.38
2023-04-08T12:59:48.924Z,8.85
2023-04-08T13:02:16.861Z,9.68
2023-04-08T13:04:44.910Z,9.60
2023-04-08T13:07:14.179Z,10.07
2023-04-08T13:09:42.919Z,9.23
2023-04-08T13:12:12.221Z,8.57
2023-04-08T13:14:40.148Z,8.82
2023-04-08T13:17:08.374Z,8.77
2023-04-08T13:19:36.319Z,7.80
2023-04-08T13:22:04.297Z,8.45
2023-04-08T13:24:33.664Z,9.18
2023-04-08T13:27:01.864Z,7.68
2023-04-08T13:29:29.745Z,7.85
2023-04-08T13:31:57.690Z,7.28
2023-04-08T13:34:25.732Z,9.38
2023-04-08T13:36:53.669Z,9.82
2023-04-08T13:39:22.113Z,9.85
2023-04-08T13:41:52.362Z,10.95
2023-04-08T13:44:20.220Z,11.55
2023-04-08T13:46:48.148Z,11.30
2023-04-08T13:49:16.176Z,10.63
2023-04-08T13:51:44.102Z,11.23
2023-04-08T13:54:12.011Z,12.02
2023-04-08T13:56:39.947Z,13.00
2023-04-08T13:59:10.303Z,13.00
2023-04-08T14:01:38.308Z,12.90
2023-04-08T14:04:06.597Z,13.05
2023-04-08T14:06:36.089Z,12.45
2023-04-08T14:09:04.043Z,12.15
2023-04-08T14:11:32.023Z,11.57
2023-04-08T14:13:59.938Z,12.65
2023-04-08T14:16:31.066Z,12.13
2023-04-08T14:18:58.990Z,11.93
2023-04-08T14:21:26.893Z,12.90
2023-04-08T14:23:55.004Z,12.82
2023-04-08T14:26:22.925Z,12.70
2023-04-08T14:28:50.970Z,12.55
2023-04-08T14:31:19.072Z,13.05
2023-04-08T14:33:48.427Z,13.25
2023-04-08T14:36:16.746Z,13.57
2023-04-08T14:38:44.688Z,12.88
2023-04-08T14:41:12.653Z,12.45
2023-04-08T14:43:40.533Z,14.10
2023-04-08T14:46:08.570Z,13.10
2023-04-08T14:48:36.516Z,13.07
2023-04-08T14:51:06.038Z,13.13
2023-04-08T14:53:34.009Z,13.68
2023-04-08T14:56:02.092Z,12.38
2023-04-08T14:58:29.984Z,11.65
2023-04-08T15:00:57.876Z,13.50
2023-04-08T15:03:26.019Z,13.77
2023-04-08T15:05:55.775Z,13.18
2023-04-08T15:08:25.079Z,13.80
2023-04-08T15:10:53.035Z,13.57
2023-04-08T15:13:20.936Z,14.18
2023-04-08T15:15:48.904Z,13.85
2023-04-08T15:18:16.874Z,14.48
2023-04-08T15:20:44.777Z,13.98
2023-04-08T15:23:12.830Z,14.48
2023-04-08T15:25:42.098Z,14.77
2023-04-08T15:28:10.087Z,14.98
2023-04-08T15:30:38.001Z,14.85
2023-04-08T15:33:06.478Z,14.40
2023-04-08T15:35:34.651Z,14.40
2023-04-08T15:38:02.591Z,15.40
2023-04-08T15:40:33.826Z,15.50
2023-04-08T15:43:03.861Z,14.35
2023-04-08T15:45:31.827Z,14.68
2023-04-08T15:47:59.788Z,14.65
2023-04-08T15:50:29.897Z,14.38
2023-04-08T15:52:57.946Z,14.63
2023-04-08T15:55:25.819Z,14.52
2023-04-08T15:57:56.648Z,14.45
2023-04-08T16:00:26.178Z,14.68
2023-04-08T16:02:54.334Z,16.48
2023-04-08T16:05:22.651Z,14.93
2023-04-08T16:07:50.542Z,15.20
2023-04-08T16:10:18.802Z,15.15
2023-04-08T16:12:47.364Z,15.20
2023-04-08T16:15:15.312Z,14.90
2023-04-08T16:17:44.570Z,15.88
2023-04-08T16:20:12.702Z,14.18
2023-04-08T16:22:40.601Z,15.60
2023-04-08T16:25:09.365Z,14.77
2023-04-08T16:27:38.404Z,16.15
2023-04-08T16:30:07.313Z,15.05
2023-04-08T16:32:35.304Z,15.05
2023-04-08T16:35:04.819Z,16.65
2023-04-08T16:37:32.719Z,15.32
2023-04-08T16:40:00.640Z,15.15
2023-04-08T16:42:28.620Z,14.63
2023-04-08T16:44:57.876Z,14.32
2023-04-08T16:47:26.465Z,16.10
2023-04-08T16:49:54.604Z,14.45
2023-04-08T16:52:24.168Z,14.80
2023-04-08T16:54:52.433Z,15.25
2023-04-08T16:57:20.329Z,15.82
2023-04-08T16:59:48.543Z,14.95
2023-04-08T17:02:16.519Z,15.18
2023-04-08T17:04:44.471Z,14.95
2023-04-08T17:07:14.452Z,15.38
2023-04-08T17:09:43.920Z,15.95
2023-04-08T17:12:11.799Z,13.93
2023-04-08T17:14:39.651Z,14.88
2023-04-08T17:17:07.511Z,16.23
2023-04-08T17:19:35.457Z,15.15
2023-04-08T17:22:03.348Z,15.48
2023-04-08T17:24:31.402Z,15.88
2023-04-08T17:27:00.704Z,15.43
2023-04-08T17:29:28.607Z,15.75
2023-04-08T17:31:56.604Z,15.70
2023-04-08T17:34:24.860Z,16.23
2023-04-08T17:36:52.765Z,15.25
2023-04-08T17:39:20.685Z,15.35
2023-04-08T17:41:48.552Z,15.43
2023-04-08T17:44:17.984Z,15.73
2023-04-08T17:46:46.144Z,14.77
2023-04-08T17:49:14.284Z,15.57
2023-04-08T17:51:42.339Z,15.43
2023-04-08T17:54:10.434Z,15.00
2023-04-08T17:56:38.314Z,14.02
2023-04-08T17:59:06.255Z,15.05
2023-04-08T18:01:37.327Z,14.57
2023-04-08T18:04:06.776Z,13.85
2023-04-08T18:06:34.856Z,14.85
2023-04-08T18:09:03.748Z,14.88
2023-04-08T18:11:31.902Z,13.80
2023-04-08T18:13:59.921Z,14.95
2023-04-08T18:16:27.917Z,14.63
2023-04-08T18:18:57.286Z,14.52
2023-04-08T18:21:25.477Z,14.73
2023-04-08T18:23:53.525Z,14.30
2023-04-08T18:26:22.159Z,15.15
2023-04-08T18:28:50.153Z,15.57
2023-04-08T18:31:18.100Z,16.17
2023-04-08T18:33:46.117Z,17.40
2023-04-08T18:36:15.512Z,17.05
2023-04-08T18:38:44.736Z,19.55
2023-04-08T18:41:13.391Z,19.25
2023-04-08T18:43:41.590Z,20.25
2023-04-08T18:46:09.507Z,19.65
2023-04-08T18:48:37.592Z,19.42
2023-04-08T18:51:05.470Z,19.42
2023-04-08T18:53:34.872Z,19.30
2023-04-08T18:56:02.824Z,19.20
2023-04-08T18:58:31.514Z,20.40
2023-04-08T19:00:59.384Z,18.30
2023-04-08T19:03:27.499Z,18.20
2023-04-08T19:05:55.542Z,17.88
2023-04-08T19:08:23.477Z,17.45
2023-04-08T19:10:52.824Z,16.77
2023-04-08T19:13:22.197Z,17.42
2023-04-08T19:15:50.107Z,15.85
2023-04-08T19:18:18.150Z,16.10
2023-04-08T19:20:46.925Z,16.95
2023-04-08T19:23:15.462Z,17.02
2023-04-08T19:25:44.156Z,14.90
2023-04-08T19:28:14.324Z,16.33
2023-04-08T19:30:42.476Z,15.38
2023-04-08T19:33:10.728Z,20.45
2023-04-08T19:35:38.730Z,16.48
2023-04-08T19:38:06.747Z,16.90
2023-04-08T19:40:34.588Z,18.00
2023-04-08T19:43:02.547Z,16.10
2023-04-08T19:45:31.864Z,16.08
2023-04-08T19:47:59.939Z,16.30
2023-04-08T19:50:28.222Z,17.33
2023-04-08T19:52:56.241Z,22.85
2023-04-08T19:55:24.522Z,27.25
2023-04-08T19:57:52.791Z,25.35
2023-04-08T20:00:20.765Z,27.85
2023-04-08T20:02:50.247Z,29.00
2023-04-08T20:05:18.647Z,29.10
2023-04-08T20:07:46.595Z,30.40
2023-04-08T20:10:14.614Z,30.10
2023-04-08T20:12:42.722Z,30.98
2023-04-08T20:15:23.559Z,30.73
2023-04-08T20:17:54.218Z,32.22
2023-04-08T20:20:22.846Z,32.35
2023-04-08T20:22:50.979Z,32.22
2023-04-08T20:25:19.001Z,32.85
2023-04-08T20:27:47.116Z,33.47
2023-04-08T20:30:15.053Z,32.92
2023-04-08T20:32:43.267Z,34.80
2023-04-08T20:35:13.435Z,38.28
2023-04-08T20:37:41.592Z,37.63
2023-04-08T20:40:10.550Z,37.22
2023-04-08T20:42:38.665Z,37.20
2023-04-08T20:45:07.799Z,37.58
2023-04-08T20:47:35.696Z,37.33
2023-04-08T20:50:03.608Z,36.88
2023-04-08T20:52:32.895Z,37.33
2023-04-08T20:55:00.980Z,37.95
2023-04-08T20:57:28.918Z,37.42
2023-04-08T20:59:56.880Z,38.70
2023-04-08T21:02:25.125Z,39.05
2023-04-08T21:04:53.114Z,37.90
2023-04-08T21:07:21.046Z,38.78
2023-04-08T21:09:50.389Z,36.85
2023-04-08T21:12:18.304Z,39.35
2023-04-08T21:14:47.224Z,38.13
2023-04-08T21:17:15.300Z,38.45
2023-04-08T21:19:43.192Z,39.80
2023-04-08T21:22:11.126Z,39.40
2023-04-08T21:24:38.954Z,41.05
2023-04-08T21:27:08.261Z,41.38
2023-04-08T21:29:36.127Z,39.38
2023-04-08T21:32:04.051Z,42.15
2023-04-08T21:34:32.163Z,41.03
2023-04-08T21:37:00.246Z,39.50
2023-04-08T21:39:28.164Z,34.42
2023-04-08T21:41:56.842Z,37.38
2023-04-08T21:44:26.788Z,35.33
2023-04-08T21:46:55.232Z,36.28
2023-04-08T21:49:23.172Z,36.40
2023-04-08T21:51:50.999Z,39.65
2023-04-08T21:54:18.833Z,37.15
2023-04-08T21:56:46.848Z,35.97
2023-04-08T21:59:14.729Z,34.60
2023-04-08T22:01:44.295Z,36.45
2023-04-08T22:04:12.652Z,35.75
2023-04-08T22:06:41.065Z,34.13
2023-04-08T22:09:09.145Z,35.97
2023-04-08T22:11:37.286Z,36.20
2023-04-08T22:14:05.534Z,40.83
2023-04-08T22:16:33.982Z,35.85
2023-04-08T22:19:03.578Z,35.25
2023-04-08T22:21:31.696Z,31.90
2023-04-08T22:24:00.115Z,36.10
2023-04-08T22:26:28.663Z,35.65
2023-04-08T22:28:56.580Z,34.67
2023-04-08T22:31:24.610Z,34.92
2023-04-08T22:33:52.620Z,33.13
2023-04-08T22:36:22.143Z,31.65
2023-04-08T22:38:50.425Z,30.92
2023-04-08T22:41:19.793Z,34.90
2023-04-08T22:43:47.972Z,40.10
2023-04-08T22:46:18.117Z,34.00
2023-04-08T22:48:46.879Z,37.63
2023-04-08T22:51:15.039Z,38.65
2023-04-08T22:53:44.323Z,39.20
2023-04-08T22:56:12.591Z,38.30
2023-04-08T22:58:40.716Z,35.47
2023-04-08T23:01:12.961Z,36.20
2023-04-08T23:03:41.718Z,34.58
2023-04-08T23:06:10.433Z,36.00
2023-04-08T23:08:38.743Z,37.58
2023-04-08T23:11:08.548Z,38.83
2023-04-08T23:13:36.755Z,42.30
2023-04-08T23:16:04.912Z,42.58
2023-04-08T23:18:33.093Z,43.50
2023-04-08T23:21:01.128Z,42.00
2023-04-08T23:23:29.199Z,42.60
2023-04-08T23:25:57.311Z,43.72
2023-04-08T23:28:27.018Z,43.00
2023-04-08T23:30:55.086Z,42.53
2023-04-08T23:33:23.016Z,41.63
2023-04-08T23:35:51.176Z,40.53
2023-04-08T23:38:19.277Z,42.42
2023-04-08T23:40:47.284Z,51.28
2023-04-08T23:43:15.454Z,53.33
2023-04-08T23:45:44.946Z,48.15
2023-04-08T23:48:12.938Z,44.70
2023-04-08T23:50:41.167Z,46.30
2023-04-08T23:53:09.196Z,44.50
2023-04-08T23:55:37.138Z,44.58
2023-04-08T23:58:05.276Z,42.15
